Time;durP1;ratioP1;P1;durP2;ratioP2;P2;SDS_P1;SDS_P2;PMS_P1;PMS_P2;Temp;Humidity;BMP_temperature;BMP_pressure;BME280_temperature;BME280_humidity;BME280_pressure;Samples;Min_cycle;Max_cycle;Signal;HPM_P1;HPM_P2
2022/06/06 00:02:20;;;;;;;0.20;0.10;;;17.10;99.90;;;;;;4925175;29;20119;-86
2022/06/06 00:04:46;;;;;;;0.30;0.30;;;;;;;;;;4918087;29;20163;-88
2022/06/06 00:07:13;;;;;;;0.20;0.20;;;;;;;;;;4922907;29;20078;-88
2022/06/06 00:09:39;;;;;;;0.20;0.10;;;;;;;;;;4922161;29;20171;-88
2022/06/06 00:12:06;;;;;;;0.20;0.17;;;;;;;;;;4924786;29;20130;-88
2022/06/06 00:14:32;;;;;;;0.20;0.10;;;;;;;;;;4927763;28;20051;-87
2022/06/06 00:16:59;;;;;;;0.20;0.00;;;;;;;;;;4919769;28;20035;-86
2022/06/06 00:19:25;;;;;;;0.20;0.10;;;;;;;;;;4925504;29;20246;-88
2022/06/06 00:21:51;;;;;;;0.20;0.10;;;;;;;;;;4924422;29;20035;-87
2022/06/06 00:24:17;;;;;;;0.20;0.10;;;;;;;;;;4919941;29;20047;-90
2022/06/06 00:26:44;;;;;;;0.20;0.10;;;;;;;;;;4904530;29;20520;-90
2022/06/06 00:29:11;;;;;;;0.20;0.10;;;;;;;;;;4920680;29;20043;-87
2022/06/06 00:37:07;;;;;;;0.40;0.30;;;;;;;;;;4923049;29;21114;-86
2022/06/06 00:39:33;;;;;;;0.20;0.10;;;;;;;;;;4934795;28;20046;-85
2022/06/06 00:42:00;;;;;;;0.20;0.10;;;;;;;;;;4903219;29;20040;-89
2022/06/06 00:44:31;;;;;;;0.20;0.00;;;;;;;;;;4918233;29;20058;-89
2022/06/06 00:47:10;;;;;;;0.20;0.10;;;;;;;;;;4922232;29;20048;-88
2022/06/06 00:49:38;;;;;;;0.20;0.20;;;;;;;;;;4935035;28;20040;-87
2022/06/06 00:52:06;;;;;;;0.20;0.10;;;;;;;;;;4920665;29;20051;-85
2022/06/06 00:54:32;;;;;;;0.20;0.10;;;;;;;;;;4938214;28;20075;-85
2022/06/06 00:57:02;;;;;;;0.20;0.10;;;;;;;;;;4897446;29;20047;-87
2022/06/06 00:59:31;;;;;;;0.20;0.17;;;;;;;;;;4921491;29;20063;-86
2022/06/06 01:01:57;;;;;;;0.20;0.10;;;;;;;;;;4953396;28;20061;-85
2022/06/06 01:04:25;;;;;;;0.20;0.10;;;;;;;;;;4956361;28;20091;-89
2022/06/06 01:06:52;;;;;;;0.20;0.10;;;;;;;;;;4922863;29;20032;-91
2022/06/06 01:09:20;;;;;;;0.20;0.00;;;;;;;;;;4944014;28;20054;-89
2022/06/06 01:11:49;;;;;;;0.20;0.10;;;;;;;;;;4956511;28;20095;-89
2022/06/06 01:14:18;;;;;;;0.20;0.10;;;;;;;;;;4923707;29;20040;-87
2022/06/06 01:16:55;;;;;;;0.20;0.10;;;;;;;;;;4926005;29;20047;-88
2022/06/06 01:19:45;;;;;;;0.20;0.10;;;;;;;;;;4942608;28;20046;-87
2022/06/06 01:22:20;;;;;;;0.20;0.10;;;;;;;;;;4922542;29;20400;-88
2022/06/06 01:24:49;;;;;;;0.20;0.10;;;;;;;;;;4939260;28;20043;-88
2022/06/06 01:27:25;;;;;;;0.20;0.10;;;;;;;;;;4927301;29;20046;-90
2022/06/06 01:29:54;;;;;;;0.28;0.20;;;;;;;;;;4924603;29;20054;-90
2022/06/06 01:32:23;;;;;;;0.50;0.20;;;;;;;;;;4926060;29;20054;-90
2022/06/06 01:34:53;;;;;;;0.20;0.10;;;;;;;;;;4924950;29;20044;-92
2022/06/06 01:37:40;;;;;;;0.20;0.10;;;;;;;;;;4929531;29;20390;-91
2022/06/06 01:40:11;;;;;;;0.20;0.10;;;;;;;;;;4953008;28;20380;-89
2022/06/06 01:42:44;;;;;;;0.20;0.10;;;;;;;;;;4937347;28;20135;-88
2022/06/06 01:45:16;;;;;;;0.20;0.10;;;;;;;;;;4923382;29;20473;-90
2022/06/06 01:47:43;;;;;;;0.20;0.10;;;;;;;;;;4934313;28;20040;-89
2022/06/06 01:50:10;;;;;;;0.20;0.10;;;;;;;;;;4923935;29;20566;-89
2022/06/06 01:52:56;;;;;;;0.30;0.10;;;;;;;;;;4927792;29;20099;-88
2022/06/06 01:55:25;;;;;;;0.20;0.10;;;;;;;;;;4907083;29;20058;-89
2022/06/06 01:57:52;;;;;;;0.20;0.10;;;;;;;;;;4919975;29;20182;-90
2022/06/06 02:00:19;;;;;;;0.20;0.10;;;;;;;;;;4922821;29;20046;-89
2022/06/06 02:02:45;;;;;;;0.20;0.10;;;;;;;;;;4924153;29;20039;-90
2022/06/06 02:05:12;;;;;;;0.20;0.10;;;;;;;;;;4926427;29;20035;-89
2022/06/06 02:07:39;;;;;;;0.20;0.10;;;;;;;;;;4924098;29;20055;-90
2022/06/06 02:10:06;;;;;;;0.20;0.10;;;;;;;;;;4907966;29;20039;-90
2022/06/06 02:12:35;;;;;;;0.20;0.00;;;;;;;;;;4924477;29;20043;-90
2022/06/06 02:15:01;;;;;;;0.20;0.10;;;;;;;;;;4926236;29;20040;-90
2022/06/06 02:17:27;;;;;;;0.20;0.10;;;;;;;;;;4921627;29;20056;-91
2022/06/06 02:19:53;;;;;;;0.20;0.10;;;;;;;;;;4911903;29;20350;-90
2022/06/06 02:22:21;;;;;;;0.20;0.20;;;;;;;;;;4924621;29;20122;-89
2022/06/06 02:24:47;;;;;;;0.20;0.10;;;;;;;;;;4897252;29;20484;-91
2022/06/06 02:27:14;;;;;;;0.20;0.10;;;;;;;;;;4924966;29;20118;-90
2022/06/06 02:29:49;;;;;;;0.20;0.10;;;;;;;;;;4902302;29;20035;-89
2022/06/06 02:32:18;;;;;;;0.20;0.10;;;;;;;;;;4925721;29;20035;-89
2022/06/06 02:34:44;;;;;;;0.20;0.10;;;;;;;;;;4921268;28;20388;-88
2022/06/06 02:37:13;;;;;;;0.20;0.10;;;;;;;;;;4928921;29;20086;-90
2022/06/06 02:39:43;;;;;;;0.20;0.00;;;;;;;;;;4923617;29;20058;-90
2022/06/06 02:42:09;;;;;;;0.20;0.00;;;;;;;;;;4917649;28;20040;-90
2022/06/06 02:44:36;;;;;;;0.20;0.00;;;;;;;;;;4926947;29;20050;-92
2022/06/06 02:47:04;;;;;;;0.20;0.10;;;;;;;;;;4924902;29;20539;-91
2022/06/06 02:49:33;;;;;;;0.20;0.10;;;;;;;;;;4921985;29;21559;-89
2022/06/06 02:52:00;;;;;;;0.20;0.08;;;;;;;;;;4924042;29;20094;-92
2022/06/06 02:54:27;;;;;;;0.20;0.10;;;;;;;;;;4955788;28;20035;-89
2022/06/06 02:57:03;;;;;;;0.20;0.10;;;;;;;;;;4926993;29;20090;-91
2022/06/06 02:59:31;;;;;;;0.20;0.10;;;;;;;;;;4927707;29;20070;-89
2022/06/06 03:02:02;;;;;;;0.20;0.10;;;;;;;;;;4929098;29;20032;-90
2022/06/06 03:04:31;;;;;;;0.20;0.10;;;;;;;;;;4910365;29;20057;-87
2022/06/06 03:07:16;;;;;;;0.20;0.10;;;;;;;;;;4936111;28;20430;-91
2022/06/06 03:09:48;;;;;;;0.20;0.13;;;;;;;;;;4922414;29;20075;-89
2022/06/06 03:12:21;;;;;;;0.20;0.10;;;;;;;;;;4923001;29;20043;-92
2022/06/06 03:15:19;;;;;;;0.20;0.10;;;;;;;;;;4923673;29;20079;-88
2022/06/06 03:20:54;;;;;;;0.20;0.10;;;;;;;;;;4945862;28;20493;-89
2022/06/06 03:23:25;;;;;;;0.40;0.33;;;;;;;;;;4933044;29;20039;-87
2022/06/06 03:26:07;;;;;;;0.20;0.10;;;;;;;;;;4939825;28;20091;-89
2022/06/06 03:28:38;;;;;;;0.20;0.10;;;;;;;;;;4943915;28;20043;-90
2022/06/06 03:31:13;;;;;;;0.20;0.00;;;;;;;;;;4924585;29;20035;-88
2022/06/06 03:33:47;;;;;;;0.40;0.40;;;;;;;;;;4926774;29;20048;-87
2022/06/06 03:36:21;;;;;;;0.20;0.15;;;;;;;;;;4928491;29;20460;-90
2022/06/06 03:39:12;;;;;;;0.20;0.20;;;;;;;;;;4920605;29;20450;-88
2022/06/06 03:41:44;;;;;;;0.20;0.20;;;;;;;;;;4927400;29;20398;-91
2022/06/06 03:44:11;;;;;;;0.22;0.20;;;;;;;;;;4943215;28;20341;-89
2022/06/06 03:46:43;;;;;;;0.20;0.10;;;;;;;;;;4927042;29;20036;-88
2022/06/06 03:49:15;;;;;;;0.20;0.10;;;;;;;;;;4928438;29;20036;-87
2022/06/06 03:51:45;;;;;;;0.20;0.20;;;;;;;;;;4927774;29;20093;-91
2022/06/06 03:54:15;;;;;;;0.30;0.30;;;;;;;;;;4928174;29;20039;-94
2022/06/06 03:56:50;;;;;;;0.20;0.10;;;;;;;;;;4959822;28;20576;-92
2022/06/06 03:59:20;;;;;;;0.20;0.20;;;;;;;;;;4957782;28;20044;-91
2022/06/06 04:01:49;;;;;;;0.20;0.15;;;;;;;;;;4936718;28;20047;-90
2022/06/06 04:04:16;;;;;;;0.20;0.10;;;;;;;;;;4924443;29;20035;-86
2022/06/06 04:06:42;;;;;;;0.20;0.10;;;;;;;;;;4927586;29;20044;-90
2022/06/06 04:09:08;;;;;;;0.20;0.10;;;15.10;99.90;;;;;;4942503;28;20051;-87
2022/06/06 04:11:45;;;;;;;0.20;0.10;;;;;;;;;;4912493;29;20044;-90
2022/06/06 04:14:44;;;;;;;0.20;0.10;;;;;;;;;;4928021;29;20489;-91
2022/06/06 04:17:19;;;;;;;0.63;0.63;;;;;;;;;;4892065;29;20059;-87
2022/06/06 04:20:00;;;;;;;0.20;0.10;;;;;;;;;;4925128;29;20042;-90
2022/06/06 04:22:44;;;;;;;0.20;0.20;;;;;;;;;;4926523;29;20043;-89
2022/06/06 04:25:14;;;;;;;0.20;0.17;;;;;;;;;;4954317;28;20484;-87
2022/06/06 04:27:59;;;;;;;0.20;0.10;;;;;;;;;;4926625;29;20063;-88
2022/06/06 04:30:31;;;;;;;0.20;0.10;;;;;;;;;;4924148;29;20047;-89
2022/06/06 04:33:25;;;;;;;0.20;0.10;;;;;;;;;;4929261;29;20044;-87
2022/06/06 04:35:51;;;;;;;0.20;0.10;;;;;;;;;;4892409;29;20052;-90
2022/06/06 04:38:26;;;;;;;0.32;0.32;;;;;;;;;;4915765;29;20547;-89
2022/06/06 04:40:55;;;;;;;0.20;0.10;;;;;;;;;;4919044;29;20653;-91
2022/06/06 04:43:21;;;;;;;0.20;0.10;;;;;;;;;;4933079;29;20547;-90
2022/06/06 04:46:03;;;;;;;0.20;0.10;;;;;;;;;;4924030;29;20348;-87
2022/06/06 04:48:29;;;;;;;0.20;0.10;;;;;;;;;;4926730;29;20465;-88
2022/06/06 04:50:57;;;;;;;0.45;0.43;;;;;;;;;;4927145;29;20068;-89
2022/06/06 04:53:24;;;;;;;0.20;0.10;;;;;;;;;;4931849;29;20056;-91
2022/06/06 04:55:51;;;;;;;0.20;0.10;;;;;;;;;;4938901;28;20515;-88
2022/06/06 04:58:25;;;;;;;0.20;0.10;;;;;;;;;;4921573;29;20043;-90
2022/06/06 05:00:52;;;;;;;0.55;0.50;;;;;;;;;;4925464;29;20044;-90
2022/06/06 05:03:18;;;;;;;0.20;0.17;;;;;;;;;;4927149;29;20039;-91
2022/06/06 05:05:44;;;;;;;0.20;0.10;;;;;;;;;;4939319;28;20444;-91
2022/06/06 05:08:13;;;;;;;0.20;0.10;;;;;;;;;;4925692;29;20492;-89
2022/06/06 05:10:48;;;;;;;0.20;0.10;;;13.90;99.90;;;;;;4924550;29;20047;-88
2022/06/06 05:13:20;;;;;;;0.20;0.10;;;;;;;;;;4925942;29;20044;-91
2022/06/06 05:15:57;;;;;;;0.20;0.10;;;;;;;;;;4922292;29;20047;-89
2022/06/06 05:18:43;;;;;;;0.20;0.10;;;;;;;;;;4923970;29;20367;-93
2022/06/06 05:21:16;;;;;;;0.38;0.25;;;;;;;;;;4904808;29;20047;-86
2022/06/06 05:23:42;;;;;;;0.20;0.20;;;;;;;;;;4927727;29;20046;-90
2022/06/06 05:26:16;;;;;;;0.43;0.43;;;;;;;;;;4938859;28;20088;-90
2022/06/06 05:28:57;;;;;;;0.20;0.10;;;;;;;;;;4919623;29;20090;-90
2022/06/06 05:31:42;;;;;;;0.20;0.10;;;;;;;;;;4918322;29;20500;-89
2022/06/06 05:34:32;;;;;;;0.20;0.10;;;;;;;;;;4924969;29;20127;-92
2022/06/06 05:37:01;;;;;;;0.40;0.32;;;;;;;;;;4938736;28;20055;-90
2022/06/06 05:39:36;;;;;;;0.20;0.10;;;;;;;;;;4949410;28;20387;-87
2022/06/06 05:42:15;;;;;;;0.20;0.10;;;;;;;;;;4937241;28;20048;-88
2022/06/06 05:45:00;;;;;;;0.20;0.10;;;;;;;;;;4923003;29;20043;-91
2022/06/06 05:47:36;;;;;;;0.20;0.10;;;;;;;;;;4926738;29;20039;-90
2022/06/06 05:50:02;;;;;;;0.20;0.10;;;;;;;;;;4931295;28;20040;-92
2022/06/06 05:52:55;;;;;;;0.40;0.25;;;;;;;;;;4950995;28;20425;-88
2022/06/06 05:55:27;;;;;;;0.20;0.10;;;;;;;;;;4921265;29;20051;-92
2022/06/06 05:58:15;;;;;;;0.20;0.10;;;;;;;;;;4921502;29;20410;-93
2022/06/06 06:00:41;;;;;;;0.20;0.10;;;;;;;;;;4951815;28;20505;-90
2022/06/06 06:03:25;;;;;;;0.20;0.17;;;;;;;;;;4954563;28;20767;-88
2022/06/06 06:05:58;;;;;;;0.20;0.10;;;;;;;;;;4922327;29;20134;-88
2022/06/06 06:08:37;;;;;;;0.20;0.10;;;;;;;;;;4934789;28;20567;-87
2022/06/06 06:11:09;;;;;;;0.20;0.10;;;;;;;;;;4923478;29;20039;-92
2022/06/06 06:14:08;;;;;;;3.60;0.52;;;;;;;;;;4922197;29;20086;-92
2022/06/06 06:16:40;;;;;;;0.20;0.00;;;;;;;;;;4921564;29;20044;-92
2022/06/06 06:19:12;;;;;;;0.20;0.13;;;;;;;;;;4943402;28;20102;-90
2022/06/06 06:21:41;;;;;;;0.20;0.10;;;;;;;;;;4921988;29;20358;-88
2022/06/06 06:24:12;;;;;;;0.20;0.10;;;;;;;;;;4926383;29;20067;-89
2022/06/06 06:26:39;;;;;;;0.20;0.20;;;;;;;;;;4918348;28;20050;-89
2022/06/06 06:29:06;;;;;;;0.20;0.10;;;;;;;;;;4907546;29;20036;-91
2022/06/06 06:31:35;;;;;;;0.20;0.10;;;;;;;;;;4921777;29;20032;-89
2022/06/06 06:34:14;;;;;;;0.20;0.10;;;;;;;;;;4923298;29;20039;-91
2022/06/06 06:36:43;;;;;;;0.57;0.15;;;;;;;;;;4921134;29;20039;-91
2022/06/06 06:39:16;;;;;;;0.20;0.10;;;;;;;;;;4925023;29;20087;-90
2022/06/06 06:41:45;;;;;;;1.60;0.38;;;;;;;;;;4927734;29;20115;-89
2022/06/06 06:44:16;;;;;;;0.20;0.10;;;;;;;;;;4928822;29;20039;-90
2022/06/06 06:46:48;;;;;;;0.28;0.20;;;13.50;99.90;;;;;;4928429;29;20090;-88
2022/06/06 06:49:33;;;;;;;0.20;0.10;;;;;;;;;;4941465;28;20055;-86
2022/06/06 06:52:05;;;;;;;0.20;0.10;;;;;;;;;;4943786;28;20493;-92
2022/06/06 06:54:42;;;;;;;0.20;0.10;;;;;;;;;;4939422;28;20052;-91
2022/06/06 06:57:08;;;;;;;0.20;0.10;;;;;;;;;;4922625;29;20051;-88
2022/06/06 06:59:34;;;;;;;0.20;0.10;;;;;;;;;;4926989;29;20098;-89
2022/06/06 07:10:53;;;;;;;0.20;0.10;;;;;;;;;;4942258;28;20055;-90
2022/06/06 07:13:19;;;;;;;0.20;0.15;;;;;;;;;;4924302;29;20075;-88
2022/06/06 07:15:45;;;;;;;0.20;0.10;;;;;;;;;;4924824;29;20059;-88
2022/06/06 07:18:14;;;;;;;0.20;0.10;;;;;;;;;;4927730;29;20039;-91
2022/06/06 07:20:41;;;;;;;0.30;0.10;;;;;;;;;;4924675;29;20039;-93
2022/06/06 07:23:11;;;;;;;0.22;0.22;;;;;;;;;;4922313;29;20063;-87
2022/06/06 07:25:39;;;;;;;0.20;0.10;;;;;;;;;;4939849;28;20082;-87
2022/06/06 07:28:14;;;;;;;0.25;0.15;;;;;;;;;;4938476;29;20397;-88
2022/06/06 07:31:03;;;;;;;0.52;0.52;;;;;;;;;;4921412;29;20040;-87
2022/06/06 07:33:32;;;;;;;0.20;0.20;;;;;;;;;;4928122;28;20151;-89
2022/06/06 07:36:10;;;;;;;0.20;0.10;;;;;;;;;;4919697;29;20505;-90
2022/06/06 07:38:55;;;;;;;0.20;0.10;;;;;;;;;;4938522;29;20039;-90
2022/06/06 07:41:27;;;;;;;0.68;0.65;;;;;;;;;;4923117;29;20046;-89
2022/06/06 07:44:12;;;;;;;0.20;0.10;;;;;;;;;;4924234;29;20191;-86
2022/06/06 07:46:44;;;;;;;0.20;0.10;;;;;;;;;;4922510;29;20048;-90
2022/06/06 07:49:29;;;;;;;0.20;0.10;;;;;;;;;;4926948;29;20039;-90
2022/06/06 07:51:56;;;;;;;0.20;0.10;;;;;;;;;;4923859;29;20055;-91
2022/06/06 07:54:42;;;;;;;0.20;0.10;;;;;;;;;;4921613;29;20051;-89
2022/06/06 07:57:08;;;;;;;0.20;0.10;;;;;;;;;;4921780;29;20043;-89
2022/06/06 07:59:52;;;;;;;0.32;0.20;;;;;;;;;;4920897;29;20035;-90
2022/06/06 08:02:37;;;;;;;0.20;0.10;;;;;;;;;;4922182;29;20051;-90
2022/06/06 08:05:03;;;;;;;1.13;0.40;;;;;;;;;;4923725;29;20044;-88
2022/06/06 08:07:38;;;;;;;0.20;0.10;;;;;;;;;;4922583;29;20043;-90
2022/06/06 08:10:10;;;;;;;0.50;0.45;;;;;;;;;;4923779;29;20044;-89
2022/06/06 08:13:02;;;;;;;0.20;0.10;;;;;;;;;;4937548;29;20669;-91
2022/06/06 08:15:47;;;;;;;1.30;0.90;;;;;;;;;;4924273;29;20501;-88
2022/06/06 08:18:36;;;;;;;0.43;0.43;;;;;;;;;;4930425;29;20036;-89
2022/06/06 08:21:05;;;;;;;0.20;0.15;;;;;;;;;;4922480;29;20533;-88
2022/06/06 08:23:35;;;;;;;0.90;0.75;;;;;;;;;;4925815;29;20231;-86
2022/06/06 08:26:02;;;;;;;0.20;0.10;;;;;;;;;;4925170;29;20039;-87
2022/06/06 08:28:30;;;;;;;0.98;0.38;;;;;;;;;;4926634;29;20166;-88
2022/06/06 08:30:57;;;;;;;0.20;0.10;;;;;;;;;;4939096;29;20065;-88
2022/06/06 08:33:24;;;;;;;0.20;0.20;;;;;;;;;;4925553;29;20078;-88
2022/06/06 08:35:58;;;;;;;0.40;0.40;;;;;;;;;;4927041;29;20107;-88
2022/06/06 08:38:37;;;;;;;0.22;0.22;;;;;;;;;;4925884;29;20098;-89
2022/06/06 08:41:26;;;;;;;0.25;0.15;;;;;;;;;;4929651;29;20042;-88
2022/06/06 08:44:04;;;;;;;0.20;0.20;;;;;;;;;;4893152;29;20147;-87
2022/06/06 08:46:31;;;;;;;0.30;0.13;;;;;;;;;;4937163;28;20336;-88
2022/06/06 08:49:00;;;;;;;0.20;0.10;;;;;;;;;;4940648;23;20092;-90
2022/06/06 08:51:32;;;;;;;0.20;0.10;;;;;;;;;;4947521;28;20563;-89
2022/06/06 08:54:01;;;;;;;0.20;0.15;;;;;;;;;;4967254;28;20485;-89
2022/06/06 08:56:37;;;;;;;0.30;0.30;;;;;;;;;;4946262;28;20043;-89
2022/06/06 08:59:24;;;;;;;0.20;0.10;;;;;;;;;;4930388;28;20046;-89
2022/06/06 09:01:59;;;;;;;0.28;0.10;;;;;;;;;;4967260;28;20075;-91
2022/06/06 09:04:38;;;;;;;0.20;0.00;;;;;;;;;;4951670;28;20488;-89
2022/06/06 09:07:23;;;;;;;0.25;0.15;;;;;;;;;;4941825;28;20035;-88
2022/06/06 09:10:07;;;;;;;0.20;0.10;;;;;;;;;;4928970;28;20043;-87
2022/06/06 09:12:45;;;;;;;0.40;0.17;;;;;;;;;;4929289;28;20311;-87
2022/06/06 09:15:24;;;;;;;0.20;0.10;;;;;;;;;;4938626;28;20050;-85
2022/06/06 09:17:59;;;;;;;0.20;0.10;;;;;;;;;;4942690;28;20040;-86
2022/06/06 09:20:31;;;;;;;0.20;0.10;;;;;;;;;;4931112;28;20151;-83
2022/06/06 09:23:16;;;;;;;0.20;0.10;;;;;;;;;;4926775;29;20075;-85
2022/06/06 09:25:42;;;;;;;0.20;0.10;;;;;;;;;;4939632;28;20070;-88
2022/06/06 09:28:11;;;;;;;0.20;0.10;;;;;;;;;;4928549;28;20031;-87
2022/06/06 09:30:46;;;;;;;0.20;0.15;;;;;;;;;;4946717;28;20038;-84
2022/06/06 09:33:32;;;;;;;0.28;0.05;;;;;;;;;;4926795;28;20066;-87
2022/06/06 09:36:04;;;;;;;0.20;0.10;;;;;;;;;;4931804;28;20552;-86
2022/06/06 09:38:46;;;;;;;0.20;0.10;;;;;;;;;;4943497;28;20156;-86
2022/06/06 09:41:27;;;;;;;0.20;0.10;;;;;;;;;;4940285;28;20227;-87
2022/06/06 09:44:12;;;;;;;0.20;0.13;;;;;;;;;;4926202;28;20078;-88
2022/06/06 09:46:42;;;;;;;0.20;0.10;;;;;;;;;;4926901;28;20109;-86
2022/06/06 09:49:11;;;;;;;0.20;0.10;;;;;;;;;;4953555;28;20061;-86
2022/06/06 09:51:52;;;;;;;13.55;0.47;;;;;;;;;;4946349;28;20038;-88
2022/06/06 10:00:36;;;;;;;0.20;0.10;;;;;;;;;;4959494;28;20488;-86
2022/06/06 10:03:12;;;;;;;0.20;0.10;;;;;;;;;;4957800;28;20042;-88
2022/06/06 10:05:58;;;;;;;0.28;0.22;;;;;;;;;;4944567;28;20043;-85
2022/06/06 10:08:43;;;;;;;0.20;0.00;;;;;;;;;;4945576;28;20042;-86
2022/06/06 10:11:29;;;;;;;0.20;0.10;;;;;;;;;;4944368;28;20086;-83
2022/06/06 10:14:30;;;;;;;0.20;0.10;;;;;;;;;;4962346;28;20038;-86
2022/06/06 10:17:03;;;;;;;0.20;0.10;;;;;;;;;;4882958;29;20513;-86
2022/06/06 10:19:29;;;;;;;0.20;0.10;;;;;;;;;;4945382;28;20067;-84
2022/06/06 10:22:05;;;;;;;0.20;0.10;;;;;;;;;;4945250;28;20061;-88
2022/06/06 10:24:40;;;;;;;0.20;0.10;;;;;;;;;;4947121;28;20043;-87
2022/06/06 10:27:21;;;;;;;0.20;0.10;;;;;;;;;;4960296;28;20043;-87
2022/06/06 10:30:12;;;;;;;0.20;0.10;;;;;;;;;;4963223;28;20039;-85
2022/06/06 10:32:48;;;;;;;0.20;0.10;;;;;;;;;;4960083;28;20241;-85
2022/06/06 10:35:14;;;;;;;0.20;0.10;;;;;;;;;;4945120;28;20050;-87
2022/06/06 10:37:46;;;;;;;0.20;0.10;;;;;;;;;;4938763;28;20423;-85
2022/06/06 10:40:12;;;;;;;0.20;0.10;;;;;;;;;;4938757;28;20042;-85
2022/06/06 10:42:41;;;;;;;0.20;0.10;;;;;;;;;;4938096;28;20598;-86
2022/06/06 10:45:14;;;;;;;0.30;0.30;;;;;;;;;;4956416;28;20034;-85
2022/06/06 10:48:08;;;;;;;0.20;0.00;;;;;;;;;;4960093;28;20268;-86
2022/06/06 10:54:14;;;;;;;0.20;0.10;;;;;;;;;;4882004;29;20497;-86
2022/06/06 10:56:41;;;;;;;0.20;0.10;;;;;;;;;;4939658;28;20039;-87
2022/06/06 10:59:13;;;;;;;0.45;0.40;;;;;;;;;;4939104;28;20051;-87
2022/06/06 11:01:39;;;;;;;;;;;;;;;;;;4951134;28;20038;-86
2022/06/06 11:04:31;;;;;;;0.20;0.10;;;;;;;;;;4963435;28;20297;-85
2022/06/06 11:07:13;;;;;;;0.20;0.10;;;;;;;;;;4920802;28;20054;-87
2022/06/06 11:10:02;;;;;;;0.20;0.10;;;;;;;;;;4958987;28;20064;-87
2022/06/06 11:12:31;;;;;;;0.20;0.10;;;;;;;;;;4977772;28;20432;-88
2022/06/06 11:15:00;;;;;;;0.20;0.10;;;;;;;;;;4944225;28;20069;-87
2022/06/06 11:17:44;;;;;;;0.20;0.20;;;;;;;;;;4946096;28;20138;-88
2022/06/06 11:20:10;;;;;;;0.20;0.20;;;;;;;;;;4950805;28;20118;-86
2022/06/06 11:22:38;;;;;;;0.20;0.10;;;;;;;;;;4947085;28;20038;-88
2022/06/06 11:25:15;;;;;;;0.20;0.10;;;;;;;;;;4964339;28;20130;-86
2022/06/06 11:27:50;;;;;;;0.32;0.20;;;;;;;;;;4945990;28;20039;-86
2022/06/06 11:30:32;;;;;;;0.20;0.00;;;;;;;;;;4956978;28;20050;-85
2022/06/06 11:33:17;;;;;;;0.20;0.10;;;;;;;;;;4955930;28;20049;-86
2022/06/06 11:36:02;;;;;;;0.20;0.17;;;;;;;;;;4959780;28;20046;-88
2022/06/06 11:38:31;;;;;;;0.20;0.10;;;;;;;;;;4945888;28;20071;-88
2022/06/06 11:41:12;;;;;;;0.20;0.00;;;;;;;;;;4945309;28;20040;-86
2022/06/06 11:43:56;;;;;;;0.20;0.10;;;;;;;;;;4951664;28;20045;-86
2022/06/06 11:46:36;;;;;;;0.20;0.10;;;;;;;;;;4948468;28;20349;-85
2022/06/06 11:49:21;;;;;;;0.20;0.10;;;;;;;;;;4962316;28;20451;-89
2022/06/06 11:51:55;;;;;;;0.20;0.10;;;;;;;;;;4978434;28;20495;-85
2022/06/06 11:54:21;;;;;;;0.20;0.10;;;;;;;;;;4956264;28;20039;-87
2022/06/06 11:57:01;;;;;;;0.40;0.22;;;;;;;;;;4956804;28;20070;-86
2022/06/06 11:59:42;;;;;;;0.20;0.03;;;;;;;;;;4972903;28;20035;-87
2022/06/06 12:02:30;;;;;;;0.20;0.13;;;;;;;;;;4958320;28;20083;-88
2022/06/06 12:05:10;;;;;;;1.75;0.30;;;;;;;;;;4969807;28;21172;-84
2022/06/06 12:07:36;;;;;;;0.25;0.25;;;;;;;;;;4966198;28;20038;-83
2022/06/06 12:10:02;;;;;;;0.20;0.10;;;;;;;;;;4951579;28;20070;-83
2022/06/06 12:12:30;;;;;;;0.20;0.10;;;;;;;;;;4963573;28;20522;-84
2022/06/06 12:15:02;;;;;;;0.40;0.20;;;;;;;;;;4950831;28;20049;-85
2022/06/06 12:17:37;;;;;;;0.20;0.10;;;;;;;;;;4948041;28;20399;-85
2022/06/06 12:20:17;;;;;;;0.20;0.10;;;;;;;;;;4967969;28;20039;-87
2022/06/06 12:22:50;;;;;;;0.20;0.10;;;;;;;;;;4961687;28;20046;-85
2022/06/06 12:25:22;;;;;;;0.40;0.20;;;;;;;;;;4952404;28;20133;-87
2022/06/06 12:27:48;;;;;;;0.20;0.10;;;;;;;;;;4950478;28;20042;-85
2022/06/06 12:30:32;;;;;;;0.20;0.10;;;;;;;;;;4952023;28;20047;-85
2022/06/06 12:33:03;;;;;;;0.20;0.10;;;;;;;;;;4948282;28;20046;-84
2022/06/06 12:35:32;;;;;;;0.20;0.10;;;;;;;;;;4969114;28;20047;-88
2022/06/06 12:38:05;;;;;;;0.25;0.20;;;;;;;;;;4962790;28;20035;-85
2022/06/06 12:40:49;;;;;;;0.20;0.10;;;13.70;99.90;;;;;;4962846;28;20053;-85
2022/06/06 12:43:21;;;;;;;0.20;0.20;;;;;;;;;;4950463;28;20105;-87
2022/06/06 12:46:00;;;;;;;0.20;0.10;;;;;;;;;;4948046;28;20691;-86
2022/06/06 12:48:42;;;;;;;0.20;0.10;;;;;;;;;;4951341;28;20050;-83
2022/06/06 12:51:26;;;;;;;0.20;0.10;;;17.40;99.90;;;;;;4952043;28;20049;-84
2022/06/06 12:54:11;;;;;;;0.20;0.00;;;;;;;;;;4946739;28;20039;-86
2022/06/06 12:56:52;;;;;;;0.47;0.20;;;;;;;;;;4959682;28;20041;-82
2022/06/06 12:59:34;;;;;;;0.20;0.10;;;;;;;;;;4963820;28;20050;-87
2022/06/06 13:02:01;;;;;;;;;;;;;;;;;;4961159;28;20089;-84
2022/06/06 13:04:39;;;;;;;0.20;0.20;;;;;;;;;;4948858;28;19925;-86
2022/06/06 13:07:12;;;;;;;0.20;0.10;;;;;;;;;;4957691;28;20495;-86
2022/06/06 13:09:46;;;;;;;0.20;0.10;;;;;;;;;;4960478;28;20053;-84
2022/06/06 13:12:37;;;;;;;0.20;0.10;;;;;;;;;;4951622;28;20101;-87
2022/06/06 13:15:10;;;;;;;0.20;0.13;;;;;;;;;;4926271;28;20054;-85
2022/06/06 13:17:42;;;;;;;0.20;0.10;;;;;;;;;;4953675;28;20652;-85
2022/06/06 13:20:11;;;;;;;0.20;0.10;;;;;;;;;;4946994;28;21118;-84
2022/06/06 13:23:07;;;;;;;0.20;0.20;;;;;;;;;;4957770;28;20073;-84
2022/06/06 13:25:36;;;;;;;0.20;0.10;;;;;;;;;;4894322;28;20163;-83
2022/06/06 13:28:12;;;;;;;0.40;0.20;;;;;;;;;;4940765;28;20045;-87
2022/06/06 13:30:47;;;;;;;0.20;0.20;;;;;;;;;;4933718;28;20035;-84
2022/06/06 13:33:33;;;;;;;0.20;0.10;;;;;;;;;;4958469;28;20098;-85
2022/06/06 13:36:08;;;;;;;0.20;0.10;;;;;;;;;;4949303;28;20081;-83
2022/06/06 13:38:44;;;;;;;0.38;0.38;;;17.70;99.90;;;;;;4950017;28;20046;-85
2022/06/06 13:41:15;;;;;;;0.50;0.50;;;17.40;99.90;;;;;;4935684;28;20189;-85
2022/06/06 13:43:59;;;;;;;0.28;0.13;;;;;;;;;;4934761;28;20046;-85
2022/06/06 13:46:40;;;;;;;0.20;0.10;;;;;;;;;;4964204;28;20054;-82
2022/06/06 13:49:25;;;;;;;0.20;0.10;;;;;;;;;;4949813;28;20086;-84
2022/06/06 13:51:57;;;;;;;0.20;0.10;;;;;;;;;;4947019;28;20063;-83
2022/06/06 13:54:31;;;;;;;0.20;0.10;;;;;;;;;;4953060;28;20489;-83
2022/06/06 13:57:03;;;;;;;0.20;0.10;;;17.20;99.90;;;;;;4950873;28;20298;-83
2022/06/06 13:59:59;;;;;;;0.20;0.10;;;16.70;99.90;;;;;;4947179;28;20066;-83
2022/06/06 14:02:44;;;;;;;0.20;0.10;;;;;;;;;;4932008;28;20125;-87
2022/06/06 14:05:16;;;;;;;0.20;0.10;;;;;;;;;;4931598;28;20531;-88
2022/06/06 14:07:55;;;;;;;0.20;0.10;;;;;;;;;;4948972;28;20046;-82
2022/06/06 14:10:21;;;;;;;0.20;0.10;;;16.60;99.90;;;;;;4949804;28;20161;-85
2022/06/06 14:13:06;;;;;;;0.20;0.10;;;;;;;;;;4912247;28;20039;-84
2022/06/06 14:15:39;;;;;;;0.20;0.10;;;;;;;;;;4948268;28;20043;-84
2022/06/06 14:18:09;;;;;;;0.20;0.10;;;15.80;99.90;;;;;;4934923;28;20447;-86
2022/06/06 14:20:48;;;;;;;0.20;0.10;;;15.50;99.90;;;;;;4947767;28;20042;-83
2022/06/06 14:23:19;;;;;;;0.20;0.10;;;;;;;;;;4945436;28;20104;-87
2022/06/06 14:25:47;;;;;;;0.20;0.10;;;;;;;;;;4936116;28;20031;-86
2022/06/06 14:28:22;;;;;;;0.20;0.10;;;15.40;99.90;;;;;;4928910;28;20399;-86
2022/06/06 14:30:48;;;;;;;0.20;0.10;;;;;;;;;;4949213;28;20035;-86
2022/06/06 14:33:25;;;;;;;0.20;0.10;;;;;;;;;;4951879;28;20195;-86
2022/06/06 14:35:53;;;;;;;0.20;0.20;;;;;;;;;;4950860;28;20038;-86
2022/06/06 14:38:29;;;;;;;0.52;0.22;;;15.30;99.90;;;;;;4936996;28;20047;-88
2022/06/06 14:40:58;;;;;;;0.45;0.28;;;15.20;99.90;;;;;;4970171;28;20503;-83
2022/06/06 14:43:46;;;;;;;0.22;0.22;;;15.20;99.90;;;;;;4938047;28;20051;-85
2022/06/06 14:46:12;;;;;;;0.20;0.10;;;15.10;99.90;;;;;;4964218;28;20539;-86
2022/06/06 14:48:45;;;;;;;0.20;0.20;;;15.10;99.90;;;;;;4947017;28;20038;-86
2022/06/06 14:51:13;;;;;;;0.20;0.10;;;15.10;99.90;;;;;;4933732;28;20518;-83
2022/06/06 14:53:45;;;;;;;0.20;0.10;;;15.10;99.90;;;;;;4942091;28;20035;-82
2022/06/06 14:56:29;;;;;;;0.50;0.37;;;15.10;99.90;;;;;;4938190;28;20031;-89
2022/06/06 14:59:05;;;;;;;0.20;0.10;;;15.10;99.90;;;;;;4946731;28;20306;-89
2022/06/06 15:01:31;;;;;;;0.20;0.10;;;15.10;99.90;;;;;;4931486;28;20046;-87
2022/06/06 15:04:14;;;;;;;0.57;0.43;;;15.10;99.90;;;;;;4951479;28;20045;-88
2022/06/06 15:07:00;;;;;;;0.20;0.10;;;;;;;;;;4954810;28;20085;-86
2022/06/06 15:09:37;;;;;;;0.20;0.10;;;;;;;;;;4942732;28;20053;-86
2022/06/06 15:12:04;;;;;;;0.20;0.10;;;;;;;;;;4962456;28;20051;-83
2022/06/06 15:14:35;;;;;;;0.85;0.32;;;;;;;;;;4951371;28;20186;-88
2022/06/06 15:17:04;;;;;;;0.20;0.13;;;;;;;;;;4947183;28;20039;-90
2022/06/06 15:19:38;;;;;;;0.20;0.10;;;;;;;;;;4952621;28;20051;-85
2022/06/06 15:22:05;;;;;;;0.20;0.20;;;;;;;;;;4959481;28;20462;-89
2022/06/06 15:24:33;;;;;;;0.20;0.20;;;;;;;;;;4953033;28;20038;-89
2022/06/06 15:27:02;;;;;;;0.20;0.10;;;;;;;;;;4952782;28;20050;-87
2022/06/06 15:29:47;;;;;;;0.40;0.40;;;;;;;;;;4946923;28;20049;-87
2022/06/06 15:32:51;;;;;;;0.20;0.20;;;;;;;;;;4955948;28;20046;-89
2022/06/06 15:35:36;;;;;;;0.22;0.22;;;;;;;;;;4946479;28;20039;-87
2022/06/06 15:38:21;;;;;;;0.20;0.10;;;;;;;;;;4946531;28;20089;-87
2022/06/06 15:40:50;;;;;;;0.20;0.10;;;;;;;;;;4967918;28;20408;-87
2022/06/06 15:43:16;;;;;;;0.47;0.20;;;;;;;;;;4955103;28;20173;-86